Hague, North Dakota
Current Conditions -  °F | °C
As of 11:15 AM on Sunday 21 Dec 2014 (Local Time) from K7L2 Reporting Station
Clear Clear  
Wind Chill: 20°   Ceiling: Unl
Heat Index: 32°   Visibility: 10mi
Dew Point: 32°   Wind: 18mph
Humidity: 100%   Direction: 140°SE
Pressure: 29.53"   Gusts: NA
Location:  46.03°N, 100°W
Report Text: K7L2 211715Z AUTO 14016KT 10SM CLR 00/00 A2953 RMK AO2
Loading
Personal Weather Stations






























Interactive Weather Map New forecast layout! Learn more

10-Day Weather Forecast

Advertisements
Track Severe Weather on mobile